createdAt,value
2018-09-18T00:01:36.867Z,97985.00
2018-09-18T00:05:39.107Z,97978.00
2018-09-18T00:09:41.278Z,97985.00
2018-09-18T00:13:43.503Z,97979.00
2018-09-18T00:17:45.674Z,97980.00
2018-09-18T00:21:47.800Z,97973.00
2018-09-18T00:25:50.014Z,97972.00
2018-09-18T00:29:52.229Z,97958.00
2018-09-18T00:33:54.383Z,97968.00
2018-09-18T00:37:56.605Z,97958.00
2018-09-18T00:41:58.786Z,97952.00
2018-09-18T00:46:00.993Z,97953.00
2018-09-18T00:50:03.204Z,97947.00
2018-09-18T00:54:05.397Z,97948.00
2018-09-18T00:58:07.722Z,97947.00
2018-09-18T01:02:09.947Z,97947.00
2018-09-18T01:06:12.201Z,97942.00
2018-09-18T01:10:14.418Z,97930.00
2018-09-18T01:14:16.733Z,97930.00
2018-09-18T01:18:18.867Z,97927.00
2018-09-18T01:22:21.013Z,97920.00
2018-09-18T01:26:23.174Z,97919.00
2018-09-18T01:30:25.394Z,97926.00
2018-09-18T01:34:27.561Z,97920.00
2018-09-18T01:38:29.824Z,97910.00
2018-09-18T01:42:32.056Z,97923.00
2018-09-18T01:46:34.205Z,97912.00
2018-09-18T01:50:36.420Z,97915.00
2018-09-18T01:54:38.581Z,97911.00
2018-09-18T01:58:40.741Z,97913.00
2018-09-18T02:02:42.882Z,97901.00
2018-09-18T02:06:45.118Z,97905.00
2018-09-18T02:10:47.308Z,97900.00
2018-09-18T02:14:49.647Z,97901.00
2018-09-18T02:18:51.830Z,97907.00
2018-09-18T02:22:53.997Z,97905.00
2018-09-18T02:26:56.138Z,97901.00
2018-09-18T02:30:58.315Z,97898.00
2018-09-18T02:35:00.495Z,97893.00
2018-09-18T02:39:04.143Z,97893.00
2018-09-18T02:43:06.322Z,97889.00
2018-09-18T02:47:08.497Z,97887.00
2018-09-18T02:51:11.072Z,97896.00
2018-09-18T02:55:13.306Z,97883.00
2018-09-18T02:59:15.536Z,97886.00
2018-09-18T03:03:17.697Z,97889.00
2018-09-18T03:07:19.886Z,97881.00
2018-09-18T03:11:22.091Z,97889.00
2018-09-18T03:15:24.247Z,97889.00
2018-09-18T03:19:26.436Z,97889.00
2018-09-18T03:23:28.615Z,97880.00
2018-09-18T03:27:30.830Z,97879.00
2018-09-18T03:31:33.028Z,97874.00
2018-09-18T03:35:35.255Z,97888.00
2018-09-18T03:39:37.402Z,97875.00
2018-09-18T03:43:39.594Z,97881.00
2018-09-18T03:47:41.785Z,97866.00
2018-09-18T03:51:43.954Z,97865.00
2018-09-18T03:55:46.102Z,97863.00
2018-09-18T03:59:49.051Z,97864.00
2018-09-18T04:03:51.222Z,97863.00
2018-09-18T04:07:53.374Z,97867.00
2018-09-18T04:11:55.626Z,97858.00
2018-09-18T04:15:57.815Z,97857.00
2018-09-18T04:20:00.080Z,97863.00
2018-09-18T04:24:02.332Z,97859.00
2018-09-18T04:28:04.548Z,97856.00
2018-09-18T04:32:06.748Z,97860.00
2018-09-18T04:36:10.359Z,97860.00
2018-09-18T04:40:12.590Z,97858.00
2018-09-18T04:44:14.910Z,97864.00
2018-09-18T04:48:17.111Z,97861.00
2018-09-18T04:52:19.285Z,97858.00
2018-09-18T04:56:21.453Z,97863.00
2018-09-18T05:00:23.753Z,97854.00
2018-09-18T05:04:26.043Z,97850.00
2018-09-18T05:08:28.238Z,97850.00
2018-09-18T05:12:30.446Z,97849.00
2018-09-18T05:16:32.841Z,97859.00
2018-09-18T05:20:35.039Z,97855.00
2018-09-18T05:24:37.221Z,97858.00
2018-09-18T05:28:39.441Z,97862.00
2018-09-18T05:32:41.670Z,97861.00
2018-09-18T05:36:46.112Z,97861.00
2018-09-18T05:40:48.567Z,97865.00
2018-09-18T05:44:50.882Z,97850.00
2018-09-18T05:48:53.060Z,97870.00
2018-09-18T05:52:55.901Z,97866.00
2018-09-18T05:56:58.159Z,97866.00
2018-09-18T06:01:00.410Z,97865.00
2018-09-18T06:05:02.629Z,97864.00
2018-09-18T06:09:07.816Z,97858.00
2018-09-18T06:13:09.975Z,97851.00
2018-09-18T06:17:12.210Z,97875.00
2018-09-18T06:21:14.412Z,97867.00
2018-09-18T06:25:16.688Z,97871.00
2018-09-18T06:29:18.964Z,97884.00
2018-09-18T06:33:21.516Z,97880.00
2018-09-18T06:37:23.787Z,97882.00
2018-09-18T06:41:26.024Z,97746.00
2018-09-18T06:45:28.260Z,97887.00
2018-09-18T06:49:30.567Z,97879.00
2018-09-18T06:53:32.885Z,97875.00
2018-09-18T06:57:35.498Z,97882.00
2018-09-18T07:01:38.038Z,97891.00
2018-09-18T07:05:40.321Z,97900.00
2018-09-18T07:09:42.770Z,97901.00
2018-09-18T07:13:45.527Z,97894.00
2018-09-18T07:17:48.718Z,97902.00
2018-09-18T07:21:50.886Z,97910.00
2018-09-18T07:25:53.046Z,97911.00
2018-09-18T07:29:55.272Z,97914.00
2018-09-18T07:33:57.607Z,97923.00
2018-09-18T07:37:59.919Z,97920.00
2018-09-18T07:42:02.143Z,97917.00
2018-09-18T07:46:04.674Z,97916.00
2018-09-18T07:50:06.930Z,97918.00
2018-09-18T07:54:09.177Z,97922.00
2018-09-18T07:58:11.400Z,97928.00
2018-09-18T08:02:13.572Z,97919.00
2018-09-18T08:06:15.779Z,97916.00
2018-09-18T08:10:18.079Z,97914.00
2018-09-18T08:14:20.283Z,97912.00
2018-09-18T08:18:22.468Z,97917.00
2018-09-18T08:22:24.690Z,97909.00
2018-09-18T08:26:26.847Z,97909.00
2018-09-18T08:30:29.069Z,97915.00
2018-09-18T08:34:31.370Z,97916.00
2018-09-18T08:38:34.561Z,97909.00
2018-09-18T08:42:36.763Z,97908.00
2018-09-18T08:46:39.930Z,97910.00
2018-09-18T08:50:42.252Z,97914.00
2018-09-18T08:54:44.499Z,97914.00
2018-09-18T08:58:46.665Z,97921.00
2018-09-18T09:02:48.887Z,97921.00
2018-09-18T09:06:51.287Z,97920.00
2018-09-18T09:10:53.669Z,97924.00
2018-09-18T09:14:55.902Z,97920.00
2018-09-18T09:18:58.095Z,97926.00
2018-09-18T09:23:00.396Z,97910.00
2018-09-18T09:27:02.586Z,97918.00
2018-09-18T09:31:04.834Z,97927.00
2018-09-18T09:35:07.158Z,97930.00
2018-09-18T09:39:10.743Z,97914.00
2018-09-18T09:43:12.948Z,97914.00
2018-09-18T09:47:15.254Z,97906.00
2018-09-18T09:51:17.548Z,97905.00
2018-09-18T09:55:19.678Z,97910.00
2018-09-18T09:59:21.899Z,97911.00
2018-09-18T10:03:24.060Z,97905.00
2018-09-18T10:07:26.281Z,97916.00
2018-09-18T10:11:28.475Z,97905.00
2018-09-18T10:15:30.720Z,97902.00
2018-09-18T10:19:32.949Z,97893.00
2018-09-18T10:23:35.134Z,97894.00
2018-09-18T10:27:37.308Z,97896.00
2018-09-18T10:31:39.515Z,97881.00
2018-09-18T10:35:41.717Z,97895.00
2018-09-18T10:39:43.906Z,97887.00
2018-09-18T10:43:46.096Z,97881.00
2018-09-18T10:47:48.239Z,97869.00
2018-09-18T10:51:50.518Z,97878.00
2018-09-18T10:55:52.777Z,97878.00
2018-09-18T10:59:54.954Z,97876.00
2018-09-18T11:03:57.164Z,97883.00
2018-09-18T11:07:59.526Z,97879.00
2018-09-18T11:12:01.640Z,97870.00
2018-09-18T11:16:13.323Z,97880.00
2018-09-18T11:20:15.574Z,97873.00
2018-09-18T11:24:17.840Z,97879.00
2018-09-18T11:28:19.938Z,97877.00
2018-09-18T11:32:22.126Z,97880.00
2018-09-18T11:36:25.176Z,97881.00
2018-09-18T11:40:27.404Z,97881.00
2018-09-18T11:44:29.610Z,97876.00
2018-09-18T11:48:31.917Z,97884.00
2018-09-18T11:52:34.187Z,97887.00
2018-09-18T11:56:36.446Z,97891.00
2018-09-18T12:00:38.680Z,97883.00
2018-09-18T12:04:40.914Z,97881.00
2018-09-18T12:08:43.340Z,97885.00
2018-09-18T12:12:45.565Z,97873.00
2018-09-18T12:16:47.856Z,97868.00
2018-09-18T12:20:50.007Z,97876.00
2018-09-18T12:24:52.220Z,97882.00
2018-09-18T12:28:54.483Z,97868.00
2018-09-18T12:32:56.675Z,97874.00
2018-09-18T12:36:59.463Z,97864.00
2018-09-18T12:41:01.614Z,97861.00
2018-09-18T12:45:04.034Z,97863.00
2018-09-18T12:49:06.302Z,97860.00
2018-09-18T12:53:08.394Z,97857.00
2018-09-18T12:57:10.653Z,97857.00
2018-09-18T13:01:12.764Z,97856.00
2018-09-18T13:05:14.972Z,97860.00
2018-09-18T13:09:17.209Z,97859.00
2018-09-18T13:13:19.443Z,97868.00
2018-09-18T13:17:21.759Z,97854.00
2018-09-18T13:21:23.900Z,97848.00
2018-09-18T13:25:26.336Z,97850.00
2018-09-18T13:29:29.333Z,97853.00
2018-09-18T13:33:31.555Z,97841.00
2018-09-18T13:37:33.908Z,97833.00
2018-09-18T13:41:36.792Z,97827.00
2018-09-18T13:45:39.007Z,97832.00
2018-09-18T13:49:41.992Z,97829.00
2018-09-18T13:53:44.560Z,97826.00
2018-09-18T13:57:46.840Z,97816.00
2018-09-18T14:01:49.196Z,97813.00
2018-09-18T14:05:51.535Z,97810.00
2018-09-18T14:09:54.180Z,97802.00
2018-09-18T14:13:56.532Z,97807.00
2018-09-18T14:17:58.809Z,97803.00
2018-09-18T14:22:01.064Z,97807.00
2018-09-18T14:26:03.405Z,97807.00
2018-09-18T14:30:09.867Z,97808.00
2018-09-18T14:34:13.613Z,97810.00
2018-09-18T14:38:16.395Z,97806.00
2018-09-18T14:42:18.652Z,97806.00
2018-09-18T14:46:20.876Z,97808.00
2018-09-18T14:50:28.825Z,97799.00
2018-09-18T14:54:31.091Z,97786.00
2018-09-18T14:58:33.335Z,97788.00
2018-09-18T15:02:35.588Z,97790.00
2018-09-18T15:06:37.856Z,97789.00
2018-09-18T15:10:40.174Z,97794.00
2018-09-18T15:14:43.107Z,97782.00
2018-09-18T15:18:45.439Z,97778.00
2018-09-18T15:22:47.735Z,97793.00
2018-09-18T15:26:50.984Z,97790.00
2018-09-18T15:30:53.328Z,97787.00
2018-09-18T15:34:55.588Z,97794.00
2018-09-18T15:38:57.884Z,97789.00
2018-09-18T15:43:00.251Z,97794.00
2018-09-18T15:47:05.648Z,97788.00
2018-09-18T15:51:08.258Z,97794.00
2018-09-18T15:55:10.577Z,97791.00
2018-09-18T15:59:12.865Z,97793.00
2018-09-18T16:03:15.054Z,97787.00
2018-09-18T16:07:17.980Z,97798.00
2018-09-18T16:11:20.301Z,97804.00
2018-09-18T16:15:23.976Z,97794.00
2018-09-18T16:19:33.918Z,97792.00
2018-09-18T16:23:36.273Z,97796.00
2018-09-18T16:27:38.553Z,97789.00
2018-09-18T16:31:40.789Z,97788.00
2018-09-18T16:35:43.087Z,97791.00
2018-09-18T16:39:45.339Z,97787.00
2018-09-18T16:43:49.125Z,97783.00
2018-09-18T16:47:51.351Z,97789.00
2018-09-18T16:51:53.634Z,97790.00
2018-09-18T16:55:55.917Z,97792.00
2018-09-18T16:59:58.151Z,97795.00
2018-09-18T17:04:00.323Z,97802.00
2018-09-18T17:08:03.529Z,97816.00
2018-09-18T17:12:06.037Z,97826.00
2018-09-18T17:16:08.210Z,97842.00
2018-09-18T17:20:10.409Z,97849.00
2018-09-18T17:24:12.581Z,97855.00
2018-09-18T17:28:14.898Z,97844.00
2018-09-18T17:32:17.085Z,97848.00
2018-09-18T17:36:19.326Z,97852.00
2018-09-18T17:40:21.708Z,97851.00
2018-09-18T17:44:23.908Z,97852.00
2018-09-18T17:48:26.169Z,97855.00
2018-09-18T17:52:28.419Z,97853.00
2018-09-18T17:56:30.701Z,97866.00
2018-09-18T18:00:32.903Z,97867.00
2018-09-18T18:04:35.125Z,97872.00
2018-09-18T18:08:37.362Z,97865.00
2018-09-18T18:12:39.568Z,97873.00
2018-09-18T18:16:41.882Z,97875.00
2018-09-18T18:20:44.094Z,97880.00
2018-09-18T18:24:46.254Z,97881.00
2018-09-18T18:28:48.574Z,97883.00
2018-09-18T18:32:50.929Z,97896.00
2018-09-18T18:36:53.130Z,97901.00
2018-09-18T18:40:55.498Z,97904.00
2018-09-18T18:44:57.856Z,97908.00
2018-09-18T18:49:00.035Z,97917.00
2018-09-18T18:53:02.271Z,97931.00
2018-09-18T18:57:05.073Z,97922.00
2018-09-18T19:01:07.312Z,97929.00
2018-09-18T19:05:09.582Z,97933.00
2018-09-18T19:09:13.383Z,97928.00
2018-09-18T19:13:15.707Z,97933.00
2018-09-18T19:17:18.022Z,97934.00
2018-09-18T19:21:20.417Z,97944.00
2018-09-18T19:25:22.677Z,97946.00
2018-09-18T19:29:25.034Z,97950.00
2018-09-18T19:33:27.567Z,97944.00
2018-09-18T19:37:29.751Z,97944.00
2018-09-18T19:41:32.016Z,97949.00
2018-09-18T19:45:34.256Z,97954.00
2018-09-18T19:49:38.698Z,97956.00
2018-09-18T19:53:40.972Z,97956.00
2018-09-18T19:57:43.294Z,97955.00
2018-09-18T20:01:45.686Z,97957.00
2018-09-18T20:05:48.976Z,97963.00
2018-09-18T20:09:51.356Z,97967.00
2018-09-18T20:13:53.631Z,97968.00
2018-09-18T20:17:55.911Z,97974.00
2018-09-18T20:21:58.181Z,97981.00
2018-09-18T20:26:00.483Z,97986.00
2018-09-18T20:30:02.831Z,97980.00
2018-09-18T20:35:34.605Z,97975.00
2018-09-18T20:39:36.789Z,97978.00
2018-09-18T20:43:39.007Z,97975.00
2018-09-18T20:47:41.228Z,97978.00
2018-09-18T20:51:43.547Z,97985.00
2018-09-18T20:55:45.764Z,97985.00
2018-09-18T20:59:48.018Z,97986.00
2018-09-18T21:03:50.203Z,97990.00
2018-09-18T21:07:52.470Z,97988.00
2018-09-18T21:11:54.833Z,98005.00
2018-09-18T21:15:57.104Z,98010.00
2018-09-18T21:19:59.300Z,98011.00
2018-09-18T21:24:01.539Z,98022.00
2018-09-18T21:28:03.758Z,98012.00
2018-09-18T21:32:05.987Z,98017.00
2018-09-18T21:36:08.315Z,98018.00
2018-09-18T21:40:10.590Z,98021.00
2018-09-18T21:44:12.902Z,98033.00
2018-09-18T21:48:15.144Z,98044.00
2018-09-18T21:52:17.637Z,98049.00
2018-09-18T21:56:19.855Z,98042.00
2018-09-18T22:00:22.027Z,98055.00
2018-09-18T22:04:24.303Z,98046.00
2018-09-18T22:08:26.574Z,98047.00
2018-09-18T22:12:28.751Z,98053.00
2018-09-18T22:16:30.951Z,98043.00
2018-09-18T22:20:33.122Z,98045.00
2018-09-18T22:24:35.286Z,98035.00
2018-09-18T22:28:37.545Z,98041.00
2018-09-18T22:32:39.704Z,98031.00
2018-09-18T22:36:41.908Z,98044.00
2018-09-18T22:40:44.075Z,98051.00
2018-09-18T22:44:46.246Z,98044.00
2018-09-18T22:48:48.488Z,98048.00
2018-09-18T22:52:50.651Z,98045.00
2018-09-18T22:56:52.830Z,98045.00
2018-09-18T23:00:54.997Z,98040.00
2018-09-18T23:04:57.188Z,98046.00
2018-09-18T23:08:59.394Z,98046.00
2018-09-18T23:13:01.599Z,98042.00
2018-09-18T23:17:03.830Z,98044.00
2018-09-18T23:21:06.028Z,98038.00
2018-09-18T23:25:08.215Z,98039.00
2018-09-18T23:29:10.367Z,98041.00
2018-09-18T23:33:12.498Z,98034.00
2018-09-18T23:37:14.660Z,98044.00
2018-09-18T23:41:16.808Z,98038.00
2018-09-18T23:45:18.989Z,98037.00
2018-09-18T23:49:21.151Z,98041.00
2018-09-18T23:53:24.039Z,98043.00
2018-09-18T23:57:26.182Z,98047.00
